Time;durP1;ratioP1;P1;durP2;ratioP2;P2;SDS_P1;SDS_P2;PMS_P1;PMS_P2;Temp;Humidity;BMP_temperature;BMP_pressure;BME280_temperature;BME280_humidity;BME280_pressure;Samples;Min_cycle;Max_cycle;Signal;HPM_P1;HPM_P2
2022/06/21 00:01:59;;;;;;;4.53;3.77;;;12.30;99.90;;;-141.84;90.28;17723.09;5072593;28;20651;-60
2022/06/21 00:04:27;;;;;;;4.43;3.80;;;12.20;99.90;;;-141.84;89.50;17753.56;5073111;28;20223;-60
2022/06/21 00:06:56;;;;;;;4.73;3.50;;;12.20;99.90;;;-141.84;90.21;17721.06;5072233;28;20227;-61
2022/06/21 00:09:24;;;;;;;5.30;3.53;;;12.20;99.90;;;-141.84;90.70;17674.34;5071559;28;20733;-60
2022/06/21 00:11:53;;;;;;;4.93;3.30;;;12.10;99.90;;;-141.84;91.19;17621.53;5071916;28;20267;-61
2022/06/21 00:14:21;;;;;;;4.23;3.13;;;12.10;99.90;;;-141.84;90.57;17645.91;5072388;28;20236;-60
2022/06/21 00:16:49;;;;;;;4.10;3.53;;;12.00;99.90;;;-141.84;88.78;17834.81;5072555;28;20211;-60
2022/06/21 00:19:22;;;;;;;3.40;3.10;;;12.00;99.90;;;-141.84;88.24;17912.00;5071725;28;20233;-60
2022/06/21 00:21:50;;;;;;;5.27;3.33;;;12.00;99.90;;;-141.84;89.50;17773.88;5071993;28;20259;-60
2022/06/21 00:24:19;;;;;;;5.70;3.30;;;12.00;99.90;;;-141.84;90.39;17698.72;5071992;28;20227;-62
2022/06/21 00:26:48;;;;;;;4.17;3.40;;;11.90;99.90;;;-141.84;90.75;17641.84;5071671;28;20213;-60
2022/06/21 00:29:16;;;;;;;4.30;3.30;;;11.90;99.90;;;-141.84;89.43;17773.88;5071465;28;20204;-59
2022/06/21 00:31:49;;;;;;;5.57;3.50;;;11.90;99.90;;;-141.84;90.25;17676.38;5067801;28;20233;-61
2022/06/21 00:34:23;;;;;;;5.33;3.57;;;11.80;99.90;;;-141.84;90.20;17688.56;5051299;28;20731;-61
2022/06/21 00:36:52;;;;;;;4.90;3.43;;;11.80;99.90;;;-141.84;89.82;17737.31;5051522;28;20568;-60
2022/06/21 00:39:20;;;;;;;4.73;3.70;;;11.90;99.90;;;-141.84;89.55;17739.34;5051287;28;20424;-61
2022/06/21 00:41:54;;;;;;;5.70;3.90;;;11.90;99.90;;;-141.84;89.54;17743.41;5051433;28;20213;-61
2022/06/21 00:44:33;;;;;;;5.50;4.10;;;11.90;99.90;;;-141.84;89.00;17796.22;5066733;28;20248;-60
2022/06/21 00:47:06;;;;;;;4.90;3.53;;;11.80;99.90;;;-141.84;87.83;17916.06;5071262;28;20209;-61
2022/06/21 00:49:49;;;;;;;5.87;3.33;;;11.90;99.90;;;-141.84;88.10;17940.47;5071451;28;20277;-61
2022/06/21 00:52:24;;;;;;;4.40;3.60;;;11.90;99.90;;;-141.84;89.19;17792.16;5071223;28;20251;-61
2022/06/21 00:55:01;;;;;;;4.23;3.20;;;11.80;99.90;;;-141.84;89.10;17818.56;5071141;28;20227;-61
2022/06/21 00:57:43;;;;;;;5.53;3.50;;;11.80;99.90;;;-141.84;87.94;17920.13;5071310;28;20238;-60
2022/06/21 01:00:32;;;;;;;8.67;3.60;;;11.80;99.90;;;-141.84;88.17;17926.25;5070876;28;20802;-60
2022/06/21 01:03:07;;;;;;;3.90;3.53;;;11.80;99.90;;;-141.84;87.62;17983.13;5071005;28;20227;-60
2022/06/21 01:05:42;;;;;;;4.60;3.40;;;11.90;99.90;;;-141.84;87.47;17981.09;5071350;28;20251;-61
2022/06/21 01:08:16;;;;;;;5.20;3.70;;;11.80;99.90;;;-141.84;87.59;17981.09;5071015;28;20284;-61
2022/06/21 01:10:49;;;;;;;5.07;3.30;;;11.80;99.90;;;-141.84;88.71;17863.25;5071169;28;20185;-61
2022/06/21 01:13:24;;;;;;;4.30;3.60;;;11.70;99.90;;;-141.84;89.01;17842.94;5070605;28;20253;-60
2022/06/21 01:15:55;;;;;;;5.93;3.67;;;11.70;99.90;;;-141.84;89.70;17753.56;5071030;28;20315;-60
2022/06/21 01:18:26;;;;;;;4.00;3.60;;;11.60;99.90;;;-141.84;90.35;17674.34;5070809;28;20756;-60
2022/06/21 01:21:00;;;;;;;4.97;3.67;;;11.60;99.90;;;-141.84;88.65;17826.69;5070713;28;20310;-60
2022/06/21 01:24:01;;;;;;;4.00;3.57;;;11.60;99.90;;;-141.84;89.91;17717.00;5070753;28;20247;-60
2022/06/21 01:26:53;;;;;;;4.63;3.80;;;11.60;99.90;;;-141.84;90.00;17717.00;5050798;28;20749;-60
2022/06/21 01:29:30;;;;;;;4.17;3.77;;;11.60;99.90;;;-141.84;90.94;17609.34;5050834;28;20303;-60
2022/06/21 01:32:05;;;;;;;5.80;3.60;;;11.50;99.90;;;-141.84;90.37;17611.38;5050836;28;20296;-61
2022/06/21 01:34:33;;;;;;;6.10;3.93;;;11.50;99.90;;;-141.84;87.02;17966.88;5050956;28;20288;-61
2022/06/21 01:37:09;;;;;;;4.97;3.73;;;11.50;99.90;;;-141.84;86.34;18094.84;5050454;28;20355;-59
2022/06/21 01:39:47;;;;;;;5.63;3.70;;;11.50;99.90;;;-141.84;87.08;18017.66;5057381;28;20220;-61
2022/06/21 01:42:25;;;;;;;4.87;4.00;;;11.60;99.90;;;-141.84;84.74;18255.34;5070534;28;20311;-61
2022/06/21 01:45:01;;;;;;;4.10;3.53;;;11.60;99.90;;;-141.84;86.85;18090.78;5070338;28;20224;-60
2022/06/21 01:47:42;;;;;;;4.23;3.67;;;11.60;99.90;;;-141.84;87.27;18005.47;5070276;28;20315;-61
2022/06/21 01:50:11;;;;;;;5.50;3.50;;;11.50;99.90;;;-141.84;87.84;17907.94;5070362;28;20576;-59
2022/06/21 01:52:46;;;;;;;4.37;3.70;;;11.50;99.90;;;-141.84;88.89;17863.25;5070826;28;20316;-62
2022/06/21 01:55:23;;;;;;;5.40;4.33;;;11.50;99.90;;;-141.84;88.59;17849.03;5070566;28;20234;-60
2022/06/21 01:57:57;;;;;;;4.17;3.77;;;11.50;99.90;;;-141.84;89.63;17790.13;5070100;28;20224;-61
2022/06/21 02:00:27;;;;;;;6.67;4.00;;;11.40;99.90;;;-141.84;88.84;17818.56;5069932;28;20307;-60
2022/06/21 02:03:05;;;;;;;4.77;4.00;;;11.40;99.90;;;-141.84;87.90;17926.25;5070049;28;20247;-61
2022/06/21 02:05:40;;;;;;;4.97;3.53;;;11.50;99.90;;;-141.84;88.79;17826.69;5070390;28;20299;-61
2022/06/21 02:08:14;;;;;;;4.40;4.00;;;11.40;99.90;;;-141.84;88.99;17798.25;5069820;28;20656;-59
2022/06/21 02:10:48;;;;;;;6.90;4.00;;;11.40;99.90;;;-141.84;88.24;17881.53;5070317;28;20184;-59
2022/06/21 02:13:28;;;;;;;4.67;3.67;;;11.40;99.90;;;-141.84;88.19;17891.69;5069634;28;20228;-61
2022/06/21 02:16:03;;;;;;;6.30;4.40;;;11.40;99.90;;;-141.84;87.89;17914.03;5070188;28;20307;-61
2022/06/21 02:18:38;;;;;;;4.70;3.83;;;11.40;99.90;;;-141.84;87.26;17981.09;5069615;28;20293;-58
2022/06/21 02:21:16;;;;;;;7.70;4.33;;;11.40;99.90;;;-141.84;87.96;17901.84;5069626;28;20308;-60
2022/06/21 02:23:47;;;;;;;6.37;4.40;;;11.40;99.90;;;-141.84;88.84;17818.56;5070060;28;20255;-60
2022/06/21 02:26:15;;;;;;;4.80;3.70;;;11.40;99.90;;;-141.84;89.36;17784.03;5069902;28;20220;-61
2022/06/21 02:28:45;;;;;;;6.93;4.23;;;11.30;99.90;;;-141.84;89.93;17708.88;5070315;28;20287;-61
2022/06/21 02:31:14;;;;;;;5.10;3.93;;;11.30;99.90;;;-141.84;90.10;17652.00;5069573;28;20229;-60
2022/06/21 02:33:46;;;;;;;7.33;4.30;;;11.30;99.90;;;-141.84;90.43;17633.72;5049865;28;20225;-60
2022/06/21 02:36:20;;;;;;;4.57;4.17;;;11.20;99.90;;;-141.84;89.84;17670.28;5060072;28;20342;-59
2022/06/21 02:38:54;;;;;;;5.27;4.10;;;11.20;99.90;;;-141.84;89.29;17704.81;5069964;28;20224;-61
2022/06/21 02:41:28;;;;;;;7.50;4.30;;;11.20;99.90;;;-141.84;88.12;17816.53;5049154;28;20243;-60
2022/06/21 02:44:03;;;;;;;6.20;4.10;;;11.20;99.90;;;-141.84;87.85;17901.84;5050260;28;20205;-61
2022/06/21 02:46:38;;;;;;;5.90;4.63;;;11.20;99.90;;;-141.84;87.76;17922.16;5050070;28;20288;-60
2022/06/21 02:49:19;;;;;;;5.80;4.50;;;11.30;99.90;;;-141.84;88.97;17773.88;5050128;28;20229;-60
2022/06/21 02:51:53;;;;;;;5.00;4.30;;;11.20;99.90;;;-141.84;88.15;17879.50;5053650;28;20233;-61
2022/06/21 02:54:26;;;;;;;5.27;4.37;;;11.20;99.90;;;-141.84;88.58;17834.81;5053417;28;20264;-60
2022/06/21 02:57:05;;;;;;;6.37;4.63;;;11.20;99.90;;;-141.84;88.67;17802.31;5053935;28;20217;-60
2022/06/21 02:59:39;;;;;;;4.60;4.20;;;11.20;99.90;;;-141.84;89.29;17767.78;5053675;28;20248;-60
2022/06/21 03:02:13;;;;;;;7.60;4.30;;;11.20;99.90;;;-141.84;90.02;17641.84;5053209;28;20704;-61
2022/06/21 03:04:47;;;;;;;5.50;4.80;;;11.20;99.90;;;-141.84;90.73;17564.66;5054317;28;20188;-61
2022/06/21 03:07:22;;;;;;;8.10;4.60;;;11.20;99.90;;;-141.84;88.29;17838.88;5053463;28;20224;-60
2022/06/21 03:09:52;;;;;;;5.67;4.30;;;11.20;99.90;;;-141.84;86.50;17977.03;5053451;28;20243;-61
2022/06/21 03:12:23;;;;;;;5.20;4.10;;;11.30;99.90;;;-141.84;87.55;17922.16;5052209;28;20649;-61
2022/06/21 03:14:59;;;;;;;4.97;3.70;;;11.30;99.90;;;-141.84;88.65;17810.44;5051913;28;20263;-59
2022/06/21 03:17:36;;;;;;;4.53;4.10;;;11.30;99.90;;;-141.84;88.55;17826.69;5061676;28;20228;-60
2022/06/21 03:20:10;;;;;;;6.93;3.83;;;11.20;99.90;;;-141.84;88.02;17861.22;5071746;28;20280;-60
2022/06/21 03:22:41;;;;;;;4.93;3.80;;;11.20;99.90;;;-141.84;88.54;17816.53;5072613;28;20276;-60
2022/06/21 03:25:21;;;;;;;4.77;4.37;;;11.20;99.90;;;-141.84;88.54;17822.63;5071396;28;20247;-60
2022/06/21 03:27:53;;;;;;;6.20;4.50;;;11.30;99.90;;;-141.84;88.76;17810.44;5071835;28;20315;-61
2022/06/21 03:30:28;;;;;;;7.07;4.10;;;11.30;99.90;;;-141.84;88.38;17832.78;5071689;28;20767;-60
2022/06/21 03:32:59;;;;;;;4.57;4.10;;;11.30;99.90;;;-141.84;87.38;17926.25;5070818;28;20790;-60
2022/06/21 03:35:31;;;;;;;4.80;4.33;;;11.30;99.90;;;-141.84;87.83;17863.25;5071384;28;20712;-60
2022/06/21 03:38:00;;;;;;;4.67;4.27;;;11.30;99.90;;;-141.84;88.49;17830.75;5072178;28;20643;-60
2022/06/21 03:43:22;;;;;;;6.30;4.53;;;11.30;99.90;;;-141.84;88.53;17857.16;5070955;28;20311;-60
2022/06/21 03:45:55;;;;;;;9.57;5.10;;;11.40;99.90;;;-141.84;86.75;17995.31;5071393;28;20224;-60
2022/06/21 03:48:31;;;;;;;5.37;4.50;;;11.40;99.90;;;-141.84;85.35;18098.91;5071307;28;20228;-59
2022/06/21 03:51:08;;;;;;;5.93;4.73;;;11.50;99.90;;;-141.84;85.95;18086.72;5071398;28;20216;-60
2022/06/21 03:53:45;;;;;;;7.93;4.73;;;11.50;99.90;;;-141.84;85.24;18159.84;5070798;28;20232;-59
2022/06/21 03:56:26;;;;;;;6.53;4.57;;;11.50;99.90;;;-141.84;85.22;18184.22;5051207;28;20632;-60
2022/06/21 03:59:08;;;;;;;6.27;4.67;;;11.60;99.90;;;-141.84;85.15;18176.09;5051790;28;20186;-61
2022/06/21 04:01:46;;;;;;;8.20;4.80;;;11.60;99.90;;;-141.84;85.84;18153.75;5050995;28;20241;-59
2022/06/21 04:04:25;;;;;;;5.97;5.37;;;11.70;99.90;;;-141.84;85.95;18159.84;5050589;28;20225;-59
2022/06/21 04:07:00;;;;;;;7.90;4.70;;;11.70;99.90;;;-141.84;85.93;18147.66;5051096;28;20248;-60
2022/06/21 04:09:38;;;;;;;6.30;4.83;;;11.70;99.90;;;-141.84;86.90;18076.56;5050644;28;20316;-59
2022/06/21 04:12:15;;;;;;;4.90;4.50;;;11.80;99.90;;;-141.84;86.21;18153.75;5013828;28;1073408;-60
2022/06/21 04:14:51;;;;;;;6.40;4.37;;;11.90;99.90;;;-141.84;85.31;18178.13;5070152;28;20323;-60
2022/06/21 04:17:28;;;;;;;8.17;4.47;;;12.00;99.90;;;-141.84;85.04;18230.94;5072295;28;20297;-60
2022/06/21 04:20:02;;;;;;;6.57;4.47;;;12.10;99.90;;;-141.84;85.30;18208.59;5072085;28;20560;-60
2022/06/21 04:22:38;;;;;;;4.53;4.10;;;12.20;99.90;;;-141.84;84.28;18298.00;5072070;28;20296;-60
2022/06/21 04:25:15;;;;;;;5.97;4.00;;;12.20;99.90;;;-141.84;84.41;18277.69;5071388;28;20315;-60
2022/06/21 04:27:53;;;;;;;4.67;4.00;;;12.30;99.90;;;-141.84;83.48;18336.59;5071660;28;20281;-60
2022/06/21 04:30:31;;;;;;;7.57;4.53;;;12.50;99.90;;;-141.84;81.29;18468.66;5071498;28;20255;-60
2022/06/21 04:33:09;;;;;;;6.77;4.10;;;12.60;99.90;;;-141.84;80.67;18517.41;5056474;28;20707;-61
2022/06/21 04:35:45;;;;;;;5.50;3.90;;;12.70;99.90;;;-141.84;81.49;18533.66;5051188;28;20231;-60
2022/06/21 04:38:24;;;;;;;5.03;4.13;;;12.70;99.90;;;-141.84;80.78;18531.63;5051542;28;20272;-61
2022/06/21 04:41:01;;;;;;;8.17;4.73;;;12.80;99.90;;;-141.84;80.39;18584.47;5051876;28;20280;-59
2022/06/21 04:43:40;;;;;;;7.80;4.60;;;13.00;99.90;;;-141.84;79.96;18596.66;5051588;28;20205;-60
2022/06/21 04:46:19;;;;;;;5.47;4.40;;;13.20;99.90;;;-141.84;79.35;18647.44;5051376;28;20253;-60
2022/06/21 04:48:59;;;;;;;7.07;4.23;;;13.30;99.90;;;-141.84;78.22;18657.59;5051117;28;20701;-61
2022/06/21 04:51:36;;;;;;;6.00;3.70;;;13.50;99.90;;;-141.84;68.11;19049.75;5072141;28;20224;-60
2022/06/21 04:54:11;;;;;;;5.85;3.28;;;14.30;99.90;;;-141.84;60.40;19391.13;5071627;28;20287;-61
2022/06/21 04:57:03;;;;;;;5.40;3.33;;;15.60;99.90;;;-141.84;52.30;19819.94;5071702;28;20791;-59
2022/06/21 04:59:37;;;;;;;3.88;2.72;;;17.00;99.90;;;-141.84;49.62;19998.78;5072403;28;20230;-62
2022/06/21 05:02:16;;;;;;;5.93;2.53;;;18.50;99.90;;;-141.84;43.56;20411.41;5071716;28;20284;-60
2022/06/21 05:04:49;;;;;;;4.70;2.72;;;19.60;99.90;;;-141.84;41.71;20598.41;5071955;28;20185;-60
2022/06/21 05:07:23;;;;;;;4.78;2.65;;;20.60;99.90;;;-141.84;40.24;20748.84;5072066;28;20307;-61
2022/06/21 05:09:56;;;;;;;4.75;2.65;;;21.50;99.90;;;-141.84;38.96;20862.69;5071216;28;20266;-61
2022/06/21 05:12:30;;;;;;;5.63;2.70;;;22.00;99.90;;;-141.84;37.52;20929.75;5070288;28;20770;-61
2022/06/21 05:15:05;;;;;;;5.93;2.72;;;22.10;99.90;;;-141.84;37.93;20883.00;5071466;28;20255;-62
2022/06/21 05:17:38;;;;;;;4.47;2.50;;;22.30;99.90;;;-141.84;37.50;20925.69;5071638;28;20298;-61
2022/06/21 05:20:24;;;;;;;5.75;2.88;;;21.90;99.90;;;-141.84;37.95;20878.94;5071274;28;20728;-61
2022/06/21 05:22:58;;;;;;;3.22;2.72;;;21.90;99.90;;;-141.84;36.92;20984.66;5072053;28;20783;-60
2022/06/21 05:25:32;;;;;;;3.88;2.95;;;21.90;99.90;;;-141.84;37.04;20964.31;5070869;28;20212;-60
2022/06/21 05:28:11;;;;;;;6.43;2.88;;;21.80;99.90;;;-141.84;37.13;20984.66;5071661;28;20311;-62
2022/06/21 05:30:45;;;;;;;4.13;2.75;;;21.70;99.90;;;-141.84;36.29;20992.78;5071156;28;20312;-61
2022/06/21 05:33:20;;;;;;;4.28;2.55;;;21.80;99.90;;;-141.84;37.57;20868.78;5054666;28;20728;-61
2022/06/21 05:35:50;;;;;;;4.22;2.47;;;21.70;99.90;;;-141.84;37.60;20866.75;5051453;28;20312;-60
2022/06/21 05:38:24;;;;;;;5.47;2.88;;;21.60;99.90;;;-141.84;38.13;20791.53;5051580;28;20209;-60
2022/06/21 05:40:57;;;;;;;6.60;3.50;;;21.30;99.90;;;-141.84;39.66;20689.88;5051383;28;20626;-60
2022/06/21 05:43:35;;;;;;;4.35;2.78;;;20.60;99.90;;;-141.84;42.01;20464.25;5050929;28;20240;-60
2022/06/21 05:46:11;;;;;;;4.65;2.70;;;20.30;99.90;;;-141.84;46.46;20130.91;5051085;28;20316;-61
2022/06/21 05:48:42;;;;;;;4.63;2.90;;;19.80;99.90;;;-141.84;49.26;19996.75;5051316;28;20282;-59
2022/06/21 05:51:20;;;;;;;5.03;3.30;;;19.20;99.90;;;-141.84;51.60;19834.16;5050776;28;20304;-62
2022/06/21 05:53:54;;;;;;;5.68;3.22;;;18.50;99.90;;;-141.84;53.60;19724.41;5052758;28;20308;-62
2022/06/21 05:56:28;;;;;;;9.50;3.58;;;18.00;99.90;;;-141.84;54.67;19645.16;5070567;28;20299;-60
2022/06/21 05:59:03;;;;;;;5.80;3.40;;;17.70;99.90;;;-141.84;56.59;19616.72;5070843;28;20238;-62
2022/06/21 06:01:43;;;;;;;6.38;3.22;;;17.50;99.90;;;-141.84;58.57;19541.50;5061840;28;20615;-63
2022/06/21 06:04:18;;;;;;;6.30;3.28;;;17.20;99.90;;;-141.84;58.67;19569.97;5070147;28;20228;-62
2022/06/21 06:06:49;;;;;;;5.18;2.85;;;17.10;99.90;;;-141.84;56.23;19600.44;5070252;28;20235;-61
2022/06/21 06:09:26;;;;;;;9.63;3.20;;;17.20;99.90;;;-141.84;57.33;19590.28;5070735;28;20228;-60
2022/06/21 06:12:01;;;;;;;6.18;3.20;;;17.20;99.90;;;-141.84;57.25;19588.25;5070170;28;20307;-59
2022/06/21 06:14:40;;;;;;;4.93;3.10;;;17.20;99.90;;;-141.84;57.26;19586.22;5070184;28;20235;-60
2022/06/21 06:17:23;;;;;;;5.72;3.30;;;17.00;99.90;;;-141.84;58.14;19543.53;5070315;28;20279;-59
2022/06/21 06:20:01;;;;;;;7.53;3.60;;;17.10;99.90;;;-141.84;56.49;19602.47;5071278;28;20216;-61
2022/06/21 06:22:39;;;;;;;6.97;3.10;;;17.10;99.90;;;-141.84;56.65;19565.91;5070903;28;20236;-62
2022/06/21 06:25:19;;;;;;;8.05;3.15;;;17.00;99.90;;;-141.84;57.99;19563.88;5069602;28;20304;-61
2022/06/21 06:28:01;;;;;;;4.80;3.03;;;17.10;99.90;;;-141.84;56.22;19622.81;5070229;28;20224;-63
2022/06/21 06:30:38;;;;;;;7.45;3.30;;;17.30;99.90;;;-141.84;56.63;19610.59;5069880;28;20307;-62
2022/06/21 06:33:19;;;;;;;7.97;3.10;;;17.30;99.90;;;-141.84;53.89;19677.66;5054573;28;20249;-61
2022/06/21 06:35:50;;;;;;;4.75;3.20;;;17.60;99.90;;;-141.84;53.95;19671.56;5049908;28;20229;-61
2022/06/21 06:38:20;;;;;;;6.20;3.00;;;17.70;99.90;;;-141.84;53.18;19695.97;5050457;28;20190;-62
2022/06/21 06:40:54;;;;;;;4.85;2.97;;;17.70;99.90;;;-141.84;53.14;19702.06;5050126;28;20185;-61
2022/06/21 06:43:32;;;;;;;8.52;3.05;;;17.70;99.90;;;-141.84;54.53;19655.31;5050040;28;20834;-61
2022/06/21 06:46:00;;;;;;;9.18;3.35;;;17.70;99.90;;;-141.84;53.29;19740.69;5050086;28;20224;-61
2022/06/21 06:48:37;;;;;;;5.93;2.92;;;17.80;99.90;;;-141.84;52.80;19736.59;5050441;28;20233;-62
2022/06/21 06:51:37;;;;;;;7.18;2.95;;;18.00;99.90;;;-141.84;53.65;19685.81;5049754;28;20275;-62
2022/06/21 06:54:17;;;;;;;6.32;3.05;;;18.10;99.90;;;-141.84;52.56;19746.78;5053693;28;20777;-63
2022/06/21 06:57:01;;;;;;;4.25;2.58;;;18.10;99.90;;;-141.84;53.76;19724.41;5069896;28;20228;-60
2022/06/21 06:59:30;;;;;;;4.72;2.50;;;18.30;99.90;;;-141.84;51.67;19763.03;5070365;28;20230;-61
2022/06/21 07:02:05;;;;;;;5.55;3.03;;;18.30;99.90;;;-141.84;53.37;19679.72;5070343;28;20248;-62
2022/06/21 07:04:42;;;;;;;7.63;3.00;;;17.90;99.90;;;-141.84;54.78;19626.88;5069865;28;20220;-59
2022/06/21 07:07:23;;;;;;;6.65;2.97;;;17.50;99.90;;;-141.84;55.97;19545.56;5069600;28;20228;-61
2022/06/21 07:10:01;;;;;;;7.40;3.03;;;17.30;99.90;;;-141.84;55.73;19569.97;5069830;28;20228;-61
2022/06/21 07:12:31;;;;;;;6.90;3.20;;;17.30;99.90;;;-141.84;56.63;19604.50;5069604;28;20231;-61
2022/06/21 07:15:00;;;;;;;6.05;2.88;;;17.40;99.90;;;-141.84;56.23;19606.53;5061370;28;20758;-61
2022/06/21 07:17:37;;;;;;;4.18;2.60;;;17.50;99.90;;;-141.84;55.53;19598.41;5059394;28;20595;-62
2022/06/21 07:20:21;;;;;;;7.63;3.55;;;17.20;99.90;;;-141.84;58.18;19559.81;5069709;28;20236;-63
2022/06/21 07:22:52;;;;;;;5.18;2.95;;;17.00;99.90;;;-141.84;56.10;19555.75;5070222;28;20268;-63
2022/06/21 07:25:31;;;;;;;6.90;3.10;;;17.00;99.90;;;-141.84;55.95;19569.97;5069143;28;20699;-63
2022/06/21 07:28:10;;;;;;;4.53;2.50;;;17.10;99.90;;;-141.84;53.11;19624.84;5069355;28;20252;-63
2022/06/21 07:30:47;;;;;;;5.93;2.63;;;17.20;99.90;;;-141.84;54.56;19649.22;5069582;28;20303;-61
2022/06/21 07:33:26;;;;;;;3.90;2.63;;;17.30;99.90;;;-141.84;54.81;19632.97;5052454;28;20325;-63
2022/06/21 07:36:00;;;;;;;7.53;3.08;;;17.40;99.90;;;-141.84;52.94;19704.09;5051254;28;20229;-63
2022/06/21 07:38:40;;;;;;;4.65;3.10;;;17.40;99.90;;;-141.84;53.14;19685.81;5053034;28;20228;-62
2022/06/21 07:41:18;;;;;;;6.60;3.00;;;17.60;99.90;;;-141.84;53.77;19718.31;5052939;28;20637;-62
2022/06/21 07:43:49;;;;;;;7.38;3.15;;;17.80;99.90;;;-141.84;52.26;19756.94;5053740;28;20269;-62
2022/06/21 07:46:25;;;;;;;5.82;2.45;;;18.00;99.90;;;-141.84;50.74;19813.84;5052665;28;20748;-61
2022/06/21 07:49:04;;;;;;;6.22;2.70;;;18.10;99.90;;;-141.84;51.83;19742.72;5053200;28;20227;-61
2022/06/21 07:51:40;;;;;;;4.47;2.67;;;17.90;99.90;;;-141.84;53.08;19691.91;5052673;28;20392;-61
2022/06/21 07:54:18;;;;;;;5.15;2.78;;;17.80;99.90;;;-141.84;51.21;19716.28;5057043;28;20252;-61
2022/06/21 07:56:55;;;;;;;7.15;2.60;;;17.80;99.90;;;-141.84;50.34;19777.25;5072952;28;20247;-62
2022/06/21 07:59:32;;;;;;;4.68;2.50;;;17.90;99.90;;;-141.84;51.78;19730.50;5071142;28;20239;-61
2022/06/21 08:07:57;;;;;;;6.50;2.95;;;18.00;99.90;;;-141.84;50.78;19813.84;5061808;28;20193;-60
2022/06/21 08:10:36;;;;;;;7.90;2.47;;;18.20;99.90;;;-141.84;51.08;19763.03;5052375;28;20584;-61
2022/06/21 08:13:06;;;;;;;5.40;2.95;;;18.20;99.90;;;-141.84;51.42;19734.56;5051963;28;20228;-61
2022/06/21 08:15:48;;;;;;;5.82;2.60;;;18.00;99.90;;;-141.84;51.48;19673.59;5052414;28;20236;-64
2022/06/21 08:18:26;;;;;;;8.68;5.93;;;17.80;99.90;;;-141.84;52.06;19673.59;5068309;28;20258;-65
2022/06/21 08:21:02;;;;;;;5.60;2.38;;;17.60;99.90;;;-141.84;51.35;19695.97;5072575;28;20303;-63
2022/06/21 08:23:42;;;;;;;5.28;2.22;;;17.60;99.90;;;-141.84;51.27;19643.13;5072655;28;20303;-62
2022/06/21 08:26:20;;;;;;;3.22;2.13;;;17.60;99.90;;;-141.84;51.38;19693.94;5072695;28;20192;-60
2022/06/21 08:28:56;;;;;;;3.92;2.55;;;17.70;99.90;;;-141.84;49.93;19799.63;5074204;28;20187;-60
2022/06/21 08:31:33;;;;;;;5.25;2.30;;;18.00;99.90;;;-141.84;49.21;19821.97;5070703;28;20648;-59
2022/06/21 08:34:09;;;;;;;5.10;2.53;;;18.10;99.90;;;-141.84;48.88;19858.56;5051751;28;20290;-60
2022/06/21 08:36:43;;;;;;;3.90;2.55;;;18.50;99.90;;;-141.84;47.55;19897.16;5069558;28;20230;-60
2022/06/21 08:39:21;;;;;;;6.45;2.65;;;18.60;99.90;;;-141.84;48.21;19834.16;5071572;28;20624;-62
2022/06/21 08:42:12;;;;;;;5.47;2.47;;;18.50;99.90;;;-141.84;50.26;19771.16;5071970;28;20224;-61
2022/06/21 08:45:44;;;;;;;5.55;2.40;;;18.30;99.90;;;-141.84;48.88;19842.28;5071816;28;20601;-61
2022/06/21 08:48:56;;;;;;;6.50;2.65;;;18.30;99.90;;;-141.84;49.21;19805.72;5070288;28;20238;-61
2022/06/21 08:52:27;;;;;;;3.03;2.50;;;18.50;99.90;;;-141.84;46.91;19882.94;5071673;28;20217;-61
2022/06/21 08:55:11;;;;;;;3.95;2.38;;;18.60;99.90;;;-141.84;47.42;19915.47;5049898;28;20749;-61
2022/06/21 08:57:59;;;;;;;3.88;2.38;;;18.70;99.90;;;-141.84;47.45;19899.19;5071357;28;20232;-61
2022/06/21 09:00:39;;;;;;;6.30;2.40;;;18.70;99.90;;;-141.84;46.84;19905.28;5071437;28;20654;-61
2022/06/21 09:03:35;;;;;;;4.35;2.10;;;18.70;99.90;;;-141.84;47.55;19907.31;5071216;28;20220;-61
2022/06/21 09:06:27;;;;;;;4.10;1.73;;;18.70;99.90;;;-141.84;45.81;19945.94;5071165;28;20224;-62
2022/06/21 09:09:19;;;;;;;4.25;2.20;;;18.80;99.90;;;-141.84;46.12;19911.41;5071203;28;20229;-61
2022/06/21 09:12:03;;;;;;;2.33;1.80;;;18.70;99.90;;;-141.84;46.92;19905.28;5071417;28;20311;-61
2022/06/21 09:14:55;;;;;;;3.40;1.92;;;18.70;99.90;;;-141.84;47.63;19919.53;5070770;28;20652;-61
2022/06/21 09:17:41;;;;;;;5.55;2.15;;;18.70;99.90;;;-141.84;46.91;19931.72;5070889;28;20256;-62
2022/06/21 09:20:27;;;;;;;3.65;2.00;;;18.80;99.90;;;-141.84;45.08;20025.22;5071086;28;20185;-63
2022/06/21 09:23:34;;;;;;;2.97;1.77;;;18.80;99.90;;;-141.84;44.76;19962.19;5070699;28;20675;-63
2022/06/21 09:26:11;;;;;;;3.78;1.80;;;18.90;99.90;;;-141.84;45.01;19986.59;5070911;28;20184;-62
2022/06/21 09:28:56;;;;;;;7.28;1.77;;;19.00;99.90;;;-141.84;46.03;19998.78;5071303;28;20188;-61
2022/06/21 09:31:51;;;;;;;5.20;2.05;;;19.00;99.90;;;-141.84;45.81;19964.25;5069578;28;20235;-61
2022/06/21 09:34:33;;;;;;;2.28;1.90;;;19.10;99.90;;;-141.84;47.16;19978.47;5050192;28;20235;-64
2022/06/21 09:37:15;;;;;;;7.10;2.25;;;19.10;99.90;;;-141.84;47.33;19933.75;5050493;28;20233;-64
2022/06/21 09:39:56;;;;;;;4.40;2.08;;;19.10;99.90;;;-141.84;45.43;19972.38;5050669;28;20619;-64
2022/06/21 09:42:32;;;;;;;6.25;2.33;;;19.10;99.90;;;-141.84;45.50;19964.25;5050758;28;20229;-67
2022/06/21 09:45:16;;;;;;;3.60;2.00;;;19.10;99.90;;;-141.84;46.69;19943.91;5050503;28;20223;-61
2022/06/21 09:47:58;;;;;;;2.70;1.90;;;19.00;99.90;;;-141.84;46.23;19956.09;5050457;28;20229;-61
2022/06/21 09:50:42;;;;;;;2.28;1.83;;;18.90;99.90;;;-141.84;46.67;19933.75;5054191;28;20221;-61
2022/06/21 09:53:26;;;;;;;3.78;1.73;;;18.90;99.90;;;-141.84;45.24;19972.38;5070430;28;20181;-62
2022/06/21 09:56:04;;;;;;;2.47;1.80;;;18.90;99.90;;;-141.84;45.18;20006.91;5071315;28;20184;-62
2022/06/21 09:58:45;;;;;;;4.03;1.75;;;18.90;99.90;;;-141.84;46.29;19941.88;5070214;28;20228;-61
2022/06/21 10:01:24;;;;;;;3.15;1.92;;;18.80;99.90;;;-141.84;45.13;19964.25;5070538;28;20319;-62
2022/06/21 10:04:01;;;;;;;4.18;1.90;;;19.00;99.90;;;-141.84;44.62;19980.50;5070213;28;20228;-62
2022/06/21 10:06:50;;;;;;;6.20;1.70;;;18.90;99.90;;;-141.84;45.08;19962.19;5070110;28;20246;-62
2022/06/21 10:09:39;;;;;;;2.80;1.50;;;18.90;99.90;;;-141.84;44.03;19992.69;5070193;28;20247;-62
2022/06/21 10:12:25;;;;;;;2.53;1.60;;;18.90;99.90;;;-141.84;45.35;19982.53;5070349;28;20225;-62
2022/06/21 10:15:33;;;;;;;2.95;2.30;;;19.00;99.90;;;-141.84;44.93;20004.88;5070336;28;20343;-61
2022/06/21 10:18:36;;;;;;;3.75;2.00;;;19.10;99.90;;;-141.84;45.52;20013.00;5069993;28;20239;-60
2022/06/21 10:21:55;;;;;;;3.85;2.28;;;19.10;99.90;;;-141.84;43.97;20002.84;5070521;28;20228;-60
2022/06/21 10:24:54;;;;;;;3.85;2.15;;;19.10;99.90;;;-141.84;45.27;19964.25;5069164;28;20312;-61
2022/06/21 10:27:58;;;;;;;1.80;1.60;;;19.10;99.90;;;-141.84;43.65;20039.44;5070226;28;20224;-63
2022/06/21 10:30:50;;;;;;;4.10;2.28;;;19.30;99.90;;;-141.84;44.26;20013.00;5069732;28;20806;-62
2022/06/21 10:33:57;;;;;;;2.47;2.00;;;19.30;99.90;;;-141.84;45.20;20019.13;5052861;28;20252;-62
2022/06/21 10:36:53;;;;;;;4.55;1.92;;;19.30;99.90;;;-141.84;44.50;20023.19;5065876;28;20308;-62
2022/06/21 10:40:29;;;;;;;2.75;1.58;;;19.30;99.90;;;-141.84;44.11;20041.47;5069753;28;20239;-60
2022/06/21 10:44:03;;;;;;;2.97;2.00;;;19.30;99.90;;;-141.84;43.90;20019.13;5069913;28;20729;-61
2022/06/21 10:46:44;;;;;;;3.92;1.77;;;19.30;99.90;;;-141.84;43.20;20055.69;5049613;28;20343;-61
2022/06/21 10:49:58;;;;;;;3.63;1.75;;;19.40;99.90;;;-141.84;43.47;20025.22;5049606;28;20768;-62
2022/06/21 10:53:09;;;;;;;5.00;2.17;;;19.30;99.90;;;-141.84;42.46;20098.38;5039973;28;20224;-63
2022/06/21 10:57:09;;;;;;;2.15;1.77;;;19.40;99.90;;;-141.84;41.73;20149.19;5050468;28;20212;-62
2022/06/21 10:59:10;;;;;;;2.85;1.65;;;19.50;99.90;;;-141.84;42.10;20130.91;5049872;28;20263;-62
2022/06/21 11:01:48;;;;;;;2.55;1.70;;;19.60;99.90;;;-141.84;41.72;20090.25;5050478;28;20233;-62
2022/06/21 11:04:59;;;;;;;1.90;1.60;;;19.60;99.90;;;-141.84;41.80;20116.66;5049860;28;20270;-61